createdAt,value
2022-09-01T00:00:24.035Z,20.13
2022-09-01T00:05:27.347Z,20.30
2022-09-01T00:10:30.411Z,20.45
2022-09-01T00:15:35.258Z,20.51
2022-09-01T00:20:38.332Z,20.51
2022-09-01T00:25:41.412Z,20.78
2022-09-01T00:30:44.401Z,20.89
2022-09-01T00:35:48.247Z,20.66
2022-09-01T00:40:51.375Z,20.90
2022-09-01T00:45:55.080Z,20.95
2022-09-01T00:50:58.707Z,20.93
2022-09-01T00:56:03.297Z,20.83
2022-09-01T01:01:08.908Z,20.83
2022-09-01T01:06:14.120Z,20.70
2022-09-01T01:11:20.312Z,20.88
2022-09-01T01:16:24.539Z,20.98
2022-09-01T01:22:00.298Z,20.66
2022-09-01T01:27:05.115Z,20.91
2022-09-01T01:32:13.562Z,20.83
2022-09-01T01:37:16.507Z,20.75
2022-09-01T01:42:19.935Z,20.59
2022-09-01T01:47:23.719Z,20.71
2022-09-01T01:52:27.642Z,20.64
2022-09-01T01:57:34.930Z,20.47
2022-09-01T02:02:40.385Z,20.34
2022-09-01T02:07:43.853Z,20.26
2022-09-01T02:12:47.439Z,20.16
2022-09-01T02:17:51.126Z,19.96
2022-09-01T02:22:55.704Z,19.97
2022-09-01T02:28:00.785Z,19.97
2022-09-01T02:33:05.638Z,19.83
2022-09-01T02:38:09.112Z,20.03
2022-09-01T02:43:14.132Z,20.05
2022-09-01T02:48:18.992Z,20.15
2022-09-01T02:53:23.242Z,20.25
2022-09-01T02:58:28.083Z,20.25
2022-09-01T03:03:31.648Z,20.22
2022-09-01T03:08:37.060Z,19.88
2022-09-01T03:13:42.342Z,19.66
2022-09-01T03:18:45.411Z,19.73
2022-09-01T03:23:51.194Z,19.57
2022-09-01T03:28:54.638Z,19.34
2022-09-01T03:34:00.857Z,19.41
2022-09-01T03:39:14.553Z,19.30
2022-09-01T03:44:19.989Z,19.56
2022-09-01T03:49:25.455Z,19.45
2022-09-01T03:54:30.696Z,19.44
2022-09-01T03:59:34.885Z,19.47
2022-09-01T04:04:37.954Z,19.49
2022-09-01T04:09:42.728Z,19.38
2022-09-01T04:14:48.716Z,19.45
2022-09-01T04:19:52.258Z,19.47
2022-09-01T04:24:56.549Z,19.41
2022-09-01T04:30:01.940Z,19.45
2022-09-01T04:35:11.963Z,19.37
2022-09-01T04:40:15.779Z,19.28
2022-09-01T04:45:25.515Z,19.24
2022-09-01T04:50:31.112Z,19.27
2022-09-01T04:55:55.107Z,19.17
2022-09-01T05:01:06.662Z,19.04
2022-09-01T05:06:15.328Z,19.07
2022-09-01T05:11:24.247Z,19.15
2022-09-01T05:16:36.468Z,19.04
2022-09-01T05:21:40.501Z,19.14
2022-09-01T05:26:47.116Z,19.34
2022-09-01T05:31:50.650Z,19.36
2022-09-01T05:36:59.666Z,19.58
2022-09-01T05:42:05.605Z,19.88
2022-09-01T05:47:10.078Z,20.01
2022-09-01T05:52:26.619Z,20.47
2022-09-01T05:57:35.693Z,20.94
2022-09-01T06:02:40.268Z,21.44
2022-09-01T06:07:44.539Z,21.91
2022-09-01T06:12:50.722Z,22.42
2022-09-01T06:17:58.944Z,25.62
2022-09-01T06:23:03.253Z,27.16
2022-09-01T06:28:08.817Z,27.47
2022-09-01T06:33:14.352Z,29.13
2022-09-01T06:38:23.418Z,29.63
2022-09-01T06:43:28.073Z,30.52
2022-09-01T06:48:31.521Z,30.44
2022-09-01T06:53:41.630Z,31.16
2022-09-01T06:58:49.291Z,31.03
2022-09-01T07:03:57.083Z,31.17
2022-09-01T07:09:20.589Z,31.79
2022-09-01T07:20:29.594Z,32.28
2022-09-01T07:26:00.518Z,31.71
2022-09-01T07:47:54.191Z,32.05
2022-09-01T07:52:59.034Z,32.13
2022-09-01T07:58:02.264Z,32.76
2022-09-01T08:03:06.741Z,32.30
2022-09-01T08:08:29.109Z,32.00
2022-09-01T08:13:41.695Z,32.19
2022-09-01T08:18:49.184Z,32.24
2022-09-01T08:24:04.831Z,32.40
2022-09-01T08:29:10.475Z,32.75
2022-09-01T08:34:18.056Z,32.48
2022-09-01T08:39:22.492Z,32.21
2022-09-01T08:44:50.415Z,32.83
2022-09-01T08:49:54.566Z,33.52
2022-09-01T08:55:32.367Z,33.14
2022-09-01T09:00:51.469Z,32.63
2022-09-01T09:06:09.570Z,33.48
2022-09-01T09:11:34.259Z,33.62
2022-09-01T09:16:53.334Z,33.85
2022-09-01T09:22:00.217Z,34.10
2022-09-01T09:27:04.396Z,34.04
2022-09-01T09:32:44.251Z,33.77
2022-09-01T09:37:33.585Z,33.14
2022-09-01T09:42:40.177Z,33.13
2022-09-01T09:47:46.743Z,33.03
2022-09-01T09:52:52.266Z,33.52
2022-09-01T09:58:00.233Z,33.70
2022-09-01T10:03:08.026Z,33.68
2022-09-01T10:08:38.423Z,33.30
2022-09-01T10:13:42.189Z,33.53
2022-09-01T10:18:46.831Z,32.79
2022-09-01T10:23:49.886Z,32.42
2022-09-01T10:28:55.312Z,32.84
2022-09-01T10:33:59.927Z,33.59
2022-09-01T10:39:08.979Z,32.30
2022-09-01T10:44:20.573Z,32.09
2022-09-01T10:49:29.838Z,30.60
2022-09-01T10:54:51.114Z,30.30
2022-09-01T10:59:56.735Z,29.82
2022-09-01T11:05:00.340Z,30.60
2022-09-01T11:10:32.200Z,30.21
2022-09-01T11:15:42.467Z,30.86
2022-09-01T11:20:46.111Z,31.33
2022-09-01T11:31:27.259Z,28.77
2022-09-01T11:36:53.070Z,27.31
2022-09-01T11:42:17.286Z,27.83
2022-09-01T11:47:22.082Z,27.44
2022-09-01T11:52:30.919Z,27.24
2022-09-01T11:57:37.485Z,27.17
2022-09-01T12:02:49.499Z,26.54
2022-09-01T12:07:53.187Z,26.08
2022-09-01T12:13:10.820Z,25.59
2022-09-01T12:18:22.399Z,25.01
2022-09-01T12:23:46.165Z,24.90
2022-09-01T12:28:50.079Z,25.26
2022-09-01T12:33:55.595Z,25.68
2022-09-01T12:39:18.327Z,26.99
2022-09-01T12:44:34.716Z,29.24
2022-09-01T12:49:50.003Z,29.14
2022-09-01T12:54:59.290Z,29.25
2022-09-01T13:00:12.426Z,30.64
2022-09-01T13:05:32.742Z,30.20
2022-09-01T13:10:43.162Z,30.35
2022-09-01T13:15:50.660Z,30.11
2022-09-01T13:20:54.584Z,30.52
2022-09-01T13:25:59.262Z,31.80
2022-09-01T13:36:51.105Z,31.11
2022-09-01T13:41:53.812Z,28.75
2022-09-01T13:47:00.525Z,30.60
2022-09-01T13:52:03.929Z,31.64
2022-09-01T13:57:07.221Z,30.69
2022-09-01T14:02:11.347Z,31.56
2022-09-01T14:07:14.270Z,30.32
2022-09-01T14:12:17.062Z,29.27
2022-09-01T14:17:19.924Z,28.57
2022-09-01T14:22:22.941Z,27.41
2022-09-01T14:27:25.847Z,26.95
2022-09-01T14:32:29.775Z,27.48
2022-09-01T14:37:32.699Z,29.19
2022-09-01T14:42:37.373Z,29.31
2022-09-01T14:47:40.509Z,29.88
2022-09-01T14:52:44.075Z,30.22
2022-09-01T14:57:47.494Z,29.57
2022-09-01T15:02:50.749Z,29.85
2022-09-01T15:07:54.175Z,30.41
2022-09-01T15:12:59.042Z,30.83
2022-09-01T15:18:02.631Z,30.72
2022-09-01T15:23:07.412Z,30.80
2022-09-01T15:28:10.769Z,30.93
2022-09-01T15:33:15.931Z,29.89
2022-09-01T15:38:19.232Z,29.31
2022-09-01T15:43:22.835Z,29.15
2022-09-01T15:48:27.638Z,29.31
2022-09-01T15:53:30.652Z,28.94
2022-09-01T15:58:59.430Z,29.04
2022-09-01T16:03:58.141Z,28.78
2022-09-01T16:09:01.269Z,28.11
2022-09-01T16:14:04.852Z,27.57
2022-09-01T16:19:39.264Z,27.04
2022-09-01T16:24:46.420Z,26.30
2022-09-01T16:29:58.614Z,26.01
2022-09-01T16:35:04.276Z,25.56
2022-09-01T16:40:15.334Z,25.29
2022-09-01T16:45:43.027Z,25.01
2022-09-01T16:51:04.461Z,24.42
2022-09-01T16:56:12.186Z,24.15
2022-09-01T17:01:30.498Z,23.74
2022-09-01T17:06:46.564Z,23.28
2022-09-01T17:11:58.720Z,22.98
2022-09-01T17:17:15.842Z,22.90
2022-09-01T17:22:20.260Z,22.56
2022-09-01T17:27:28.262Z,22.29
2022-09-01T17:33:03.190Z,22.55
2022-09-01T17:38:25.350Z,22.45
2022-09-01T17:43:53.381Z,22.35
2022-09-01T17:49:21.563Z,22.26
2022-09-01T17:54:50.544Z,22.09
2022-09-01T18:00:11.200Z,21.99
2022-09-01T18:05:24.683Z,21.69
2022-09-01T18:10:39.633Z,21.05
2022-09-01T18:15:54.369Z,20.50
2022-09-01T18:21:14.366Z,20.25
2022-09-01T18:26:34.985Z,19.96
2022-09-01T18:31:52.869Z,19.69
2022-09-01T18:37:20.205Z,19.47
2022-09-01T18:42:30.317Z,19.26
2022-09-01T18:47:37.122Z,19.06
2022-09-01T18:52:58.906Z,18.87
2022-09-01T18:58:34.320Z,18.86
2022-09-01T19:03:58.417Z,18.87
2022-09-01T19:09:09.092Z,19.03
2022-09-01T19:19:30.700Z,18.86
2022-09-01T19:24:43.737Z,18.87
2022-09-01T19:29:56.255Z,18.75
2022-09-01T19:35:07.362Z,18.52
2022-09-01T19:40:11.596Z,18.17
2022-09-01T19:45:38.892Z,18.40
2022-09-01T19:51:00.774Z,18.32
2022-09-01T19:56:09.503Z,18.12
2022-09-01T20:01:18.345Z,17.83
2022-09-01T20:06:43.606Z,17.53
2022-09-01T20:11:58.410Z,17.77
2022-09-01T20:17:13.162Z,17.69
2022-09-01T20:22:21.893Z,17.70
2022-09-01T20:27:33.562Z,17.67
2022-09-01T20:33:03.321Z,17.71
2022-09-01T20:38:35.379Z,17.68
2022-09-01T20:43:46.078Z,17.29
2022-09-01T20:48:50.059Z,17.34
2022-09-01T20:54:15.488Z,17.34
2022-09-01T20:59:45.535Z,17.39
2022-09-01T21:05:11.108Z,17.46
2022-09-01T21:10:59.447Z,17.52
2022-09-01T21:16:20.399Z,17.30
2022-09-01T21:21:41.930Z,17.17
2022-09-01T21:26:44.862Z,17.01
2022-09-01T21:31:48.762Z,16.92
2022-09-01T21:36:51.628Z,16.78
2022-09-01T21:41:58.265Z,16.87
2022-09-01T21:47:01.493Z,16.54
2022-09-01T21:52:05.508Z,16.67
2022-09-01T21:57:08.375Z,16.61
2022-09-01T22:02:11.341Z,16.58
2022-09-01T22:07:17.412Z,16.48
2022-09-01T22:12:20.241Z,16.49
2022-09-01T22:17:23.142Z,16.42
2022-09-01T22:22:25.990Z,16.21
2022-09-01T22:27:28.803Z,16.32
2022-09-01T22:32:34.031Z,16.10
2022-09-01T22:37:38.006Z,16.06
2022-09-01T22:42:40.991Z,16.21
2022-09-01T22:47:44.125Z,15.87
2022-09-01T22:52:47.024Z,15.91
2022-09-01T22:57:49.850Z,15.87
2022-09-01T23:02:53.375Z,15.86
2022-09-01T23:07:58.673Z,15.81
2022-09-01T23:13:01.780Z,15.67
2022-09-01T23:18:04.812Z,15.69
2022-09-01T23:23:08.024Z,15.63
2022-09-01T23:28:14.631Z,15.61
2022-09-01T23:33:19.204Z,15.55
2022-09-01T23:38:24.371Z,15.50
2022-09-01T23:43:27.747Z,15.47
2022-09-01T23:48:31.333Z,15.43
2022-09-01T23:53:35.532Z,15.39
2022-09-01T23:58:38.889Z,15.36
